GMMC/CAS METAR and TAF weather

Enter ICAO airport designator
Station Type Date Time Source
GMMC METAR 2018/07/19 07:00 UTC NOAA

GMMC 190700Z 02008KT 9999 BKN016 21/17 Q1016 NOSIG


Station Type Date Time Source
GMMC Decoded METAR 2018/07/19 07:00 UTC NOAA

Casablanca, Morocco (GMMC) 33-34N 007-40W 62M
Jul 19, 2018 - 03:00 AM EDT / 2018.07.19 0700 UTC
Wind: from the NNE (020 degrees) at 9 MPH (8 KT):0
Visibility: greater than 7 mile(s):0
Sky conditions: mostly cloudy
Temperature: 69 F (21 C)
Dew Point: 62 F (17 C)
Relative Humidity: 77%
Pressure (altimeter): 30.00 in. Hg (1016 hPa)
ob: GMMC 190700Z 02008KT 9999 BKN016 21/17 Q1016 NOSIG
cycle: 7

Station Type Date Time Source
GMMC TAF 2016/05/22 17:00 UTC NOAA

FTMC31 GMMC 221700 RRA TAF LPPT 221700Z 2218/2324 34013KT CAVOK
BECMG 2221/2224 34007KT
BECMG 2310/2312 VRB03KT


Example: see airport list